Terminal Aerodrome Forecast
Issued by NWS Nashville, TN

Home | Current Version | Previous Version | Text Only | Print | Product List | Glossary On
Versions: 1 2 3 4 5 6 7 8 9 10 11 12 13 14 15 16 17
000
FTUS44 KOHX 030520
TAFCSV
TAF
KCSV 030520Z 0306/0406 01003KT P6SM SCT250
     FM031500 04006KT P6SM OVC150
     FM040400 05003KT P6SM -RA OVC070=

USA.gov is the U.S. government's official web portal to all federal, state and local government web resources and services.